sensor_id;sensor_type;location;lat;lon;timestamp;pressure;altitude;pressure_sealevel;temperature;humidity
6500;BME280;3283;52.330;9.772;2024-01-07T08:52:17;100933.56;;;-5.05;100.00
6500;BME280;3283;52.330;9.772;2024-01-07T08:54:42;100932.94;;;-4.84;100.00
6500;BME280;3283;52.330;9.772;2024-01-07T08:57:08;100930.97;;;-4.57;100.00
6500;BME280;3283;52.330;9.772;2024-01-07T08:59:33;100933.63;;;-5.03;100.00
6500;BME280;3283;52.330;9.772;2024-01-07T09:01:58;100934.03;;;-4.95;100.00
6500;BME280;3283;52.330;9.772;2024-01-07T09:04:24;100940.09;;;-4.79;100.00
6500;BME280;3283;52.330;9.772;2024-01-07T09:06:50;100944.09;;;-4.67;100.00
6500;BME280;3283;52.330;9.772;2024-01-07T09:09:16;100951.59;;;-4.72;100.00
6500;BME280;3283;52.330;9.772;2024-01-07T09:11:41;100951.16;;;-4.80;100.00
6500;BME280;3283;52.330;9.772;2024-01-07T09:14:06;100949.91;;;-4.55;100.00
6500;BME280;3283;52.330;9.772;2024-01-07T09:16:33;100961.94;;;-4.54;100.00
6500;BME280;3283;52.330;9.772;2024-01-07T09:18:59;100953.66;;;-4.32;100.00
6500;BME280;3283;52.330;9.772;2024-01-07T10:05:26;100989.47;;;-4.19;100.00
6500;BME280;3283;52.330;9.772;2024-01-07T10:07:51;100987.38;;;-4.10;100.00
6500;BME280;3283;52.330;9.772;2024-01-07T10:10:20;100986.00;;;-3.87;100.00
6500;BME280;3283;52.330;9.772;2024-01-07T10:12:46;100987.13;;;-3.98;100.00
6500;BME280;3283;52.330;9.772;2024-01-07T10:15:12;100983.63;;;-3.82;100.00
6500;BME280;3283;52.330;9.772;2024-01-07T10:17:41;100989.84;;;-3.61;100.00
6500;BME280;3283;52.330;9.772;2024-01-07T10:20:07;100984.78;;;-3.60;100.00
6500;BME280;3283;52.330;9.772;2024-01-07T10:22:37;100988.84;;;-3.81;100.00
6500;BME280;3283;52.330;9.772;2024-01-07T10:25:03;100983.91;;;-3.60;100.00
6500;BME280;3283;52.330;9.772;2024-01-07T10:27:29;100985.56;;;-3.95;100.00
6500;BME280;3283;52.330;9.772;2024-01-07T10:29:58;100981.00;;;-3.84;100.00
6500;BME280;3283;52.330;9.772;2024-01-07T10:32:23;100985.13;;;-3.70;100.00
6500;BME280;3283;52.330;9.772;2024-01-07T10:34:51;100981.09;;;-3.99;100.00
6500;BME280;3283;52.330;9.772;2024-01-07T10:37:22;100980.09;;;-4.35;100.00
6500;BME280;3283;52.330;9.772;2024-01-07T10:39:48;100979.50;;;-4.46;100.00
6500;BME280;3283;52.330;9.772;2024-01-07T10:42:16;100985.78;;;-4.40;100.00
6500;BME280;3283;52.330;9.772;2024-01-07T10:44:43;100988.75;;;-4.49;100.00
6500;BME280;3283;52.330;9.772;2024-01-07T10:47:10;100985.72;;;-4.42;100.00
6500;BME280;3283;52.330;9.772;2024-01-07T10:49:36;100986.09;;;-4.18;100.00
6500;BME280;3283;52.330;9.772;2024-01-07T10:52:06;100983.84;;;-4.12;100.00
6500;BME280;3283;52.330;9.772;2024-01-07T10:54:33;100990.13;;;-4.39;100.00
6500;BME280;3283;52.330;9.772;2024-01-07T10:59:27;100988.19;;;-4.27;100.00
6500;BME280;3283;52.330;9.772;2024-01-07T11:01:53;100995.56;;;-4.17;100.00
6500;BME280;3283;52.330;9.772;2024-01-07T11:07:05;100997.41;;;-4.31;100.00
6500;BME280;3283;52.330;9.772;2024-01-07T11:09:46;100996.78;;;-4.43;100.00
6500;BME280;3283;52.330;9.772;2024-01-07T11:12:15;100998.69;;;-4.39;100.00
6500;BME280;3283;52.330;9.772;2024-01-07T11:14:42;100999.09;;;-4.48;100.00
6500;BME280;3283;52.330;9.772;2024-01-07T11:17:10;100989.16;;;-4.58;100.00
6500;BME280;3283;52.330;9.772;2024-01-07T11:19:36;100994.13;;;-4.28;100.00
6500;BME280;3283;52.330;9.772;2024-01-07T11:22:21;100992.88;;;-4.36;100.00
6500;BME280;3283;52.330;9.772;2024-01-07T11:24:51;100989.22;;;-4.40;100.00
6500;BME280;3283;52.330;9.772;2024-01-07T11:27:17;101000.84;;;-4.30;100.00
6500;BME280;3283;52.330;9.772;2024-01-07T11:29:42;101002.16;;;-4.38;100.00
6500;BME280;3283;52.330;9.772;2024-01-07T11:32:12;100999.25;;;-4.45;100.00
6500;BME280;3283;52.330;9.772;2024-01-07T11:37:07;100992.69;;;-4.39;100.00
6500;BME280;3283;52.330;9.772;2024-01-07T11:39:33;100992.66;;;-4.23;100.00
6500;BME280;3283;52.330;9.772;2024-01-07T11:42:02;100991.66;;;-4.43;100.00
6500;BME280;3283;52.330;9.772;2024-01-07T11:44:28;100994.91;;;-4.46;100.00
6500;BME280;3283;52.330;9.772;2024-01-07T11:46:53;100995.25;;;-4.56;100.00
6500;BME280;3283;52.330;9.772;2024-01-07T11:49:19;100998.78;;;-4.37;100.00
6500;BME280;3283;52.330;9.772;2024-01-07T11:51:44;101006.56;;;-4.52;100.00
6500;BME280;3283;52.330;9.772;2024-01-07T11:54:11;100994.44;;;-4.38;100.00
6500;BME280;3283;52.330;9.772;2024-01-07T11:56:37;101000.31;;;-4.41;100.00
6500;BME280;3283;52.330;9.772;2024-01-07T11:59:03;101000.31;;;-4.41;100.00
6500;BME280;3283;52.330;9.772;2024-01-07T12:01:28;100994.09;;;-4.61;100.00
6500;BME280;3283;52.330;9.772;2024-01-07T12:03:54;100998.53;;;-4.26;100.00
6500;BME280;3283;52.330;9.772;2024-01-07T12:06:20;100997.41;;;-4.31;100.00
6500;BME280;3283;52.330;9.772;2024-01-07T12:08:45;100998.00;;;-4.36;100.00
6500;BME280;3283;52.330;9.772;2024-01-07T12:11:13;100998.69;;;-4.39;100.00
6500;BME280;3283;52.330;9.772;2024-01-07T12:13:39;101003.38;;;-4.16;100.00
6500;BME280;3283;52.330;9.772;2024-01-07T15:38:37;101134.22;;;-5.10;100.00
6500;BME280;3283;52.330;9.772;2024-01-07T15:41:03;101138.47;;;-5.11;100.00
6500;BME280;3283;52.330;9.772;2024-01-07T15:43:29;101136.28;;;-5.05;100.00
6500;BME280;3283;52.330;9.772;2024-01-07T15:45:54;101147.56;;;-5.01;100.00
6500;BME280;3283;52.330;9.772;2024-01-07T15:48:19;101138.03;;;-5.04;100.00
6500;BME280;3283;52.330;9.772;2024-01-07T15:50:45;101146.25;;;-4.94;100.00
6500;BME280;3283;52.330;9.772;2024-01-07T15:53:10;101152.72;;;-5.01;100.00
6500;BME280;3283;52.330;9.772;2024-01-07T15:55:36;101152.19;;;-4.95;100.00
6500;BME280;3283;52.330;9.772;2024-01-07T15:58:01;101158.66;;;-5.02;100.00
6500;BME280;3283;52.330;9.772;2024-01-07T16:00:30;101163.41;;;-4.93;100.00
6500;BME280;3283;52.330;9.772;2024-01-07T16:03:05;101157.16;;;-4.99;100.00
6500;BME280;3283;52.330;9.772;2024-01-07T16:05:41;101165.66;;;-5.00;100.00
6500;BME280;3283;52.330;9.772;2024-01-07T16:08:16;101172.03;;;-4.93;100.00
6500;BME280;3283;52.330;9.772;2024-01-07T16:10:42;101170.78;;;-5.00;100.00
6500;BME280;3283;52.330;9.772;2024-01-07T16:22:22;101192.81;;;-5.03;100.00
6500;BME280;3283;52.330;9.772;2024-01-07T16:24:47;101186.00;;;-4.88;100.00
6500;BME280;3283;52.330;9.772;2024-01-07T16:27:13;101181.75;;;-4.87;100.00
6500;BME280;3283;52.330;9.772;2024-01-07T16:29:39;101187.69;;;-4.88;100.00
6500;BME280;3283;52.330;9.772;2024-01-07T16:32:05;101185.91;;;-4.89;100.00
6500;BME280;3283;52.330;9.772;2024-01-07T16:34:31;101187.31;;;-4.80;100.00
6500;BME280;3283;52.330;9.772;2024-01-07T16:36:56;101193.09;;;-4.84;100.00
6500;BME280;3283;52.330;9.772;2024-01-07T16:39:22;101193.81;;;-4.72;100.00
6500;BME280;3283;52.330;9.772;2024-01-07T16:41:48;101198.94;;;-4.72;100.00
6500;BME280;3283;52.330;9.772;2024-01-07T16:44:21;101197.13;;;-4.73;100.00
6500;BME280;3283;52.330;9.772;2024-01-07T16:46:46;101191.47;;;-4.52;100.00
6500;BME280;3283;52.330;9.772;2024-01-07T16:49:11;101196.25;;;-4.58;100.00
6500;BME280;3283;52.330;9.772;2024-01-07T16:51:37;101199.03;;;-4.70;100.00
6500;BME280;3283;52.330;9.772;2024-01-07T16:54:02;101199.47;;;-4.62;100.00
6500;BME280;3283;52.330;9.772;2024-01-07T16:56:27;101203.25;;;-4.56;100.00
6500;BME280;3283;52.330;9.772;2024-01-07T16:58:53;101204.94;;;-4.56;100.00
6500;BME280;3283;52.330;9.772;2024-01-07T17:01:19;101209.56;;;-4.51;100.00
6500;BME280;3283;52.330;9.772;2024-01-07T17:03:44;101198.19;;;-4.39;100.00
6500;BME280;3283;52.330;9.772;2024-01-07T17:06:10;101209.78;;;-4.46;100.00
6500;BME280;3283;52.330;9.772;2024-01-07T17:08:36;101201.50;;;-4.57;100.00
6500;BME280;3283;52.330;9.772;2024-01-07T17:11:02;101201.09;;;-4.33;100.00
6500;BME280;3283;52.330;9.772;2024-01-07T17:13:28;101206.53;;;-4.44;100.00
6500;BME280;3283;52.330;9.772;2024-01-07T17:15:53;101210.88;;;-4.57;100.00
6500;BME280;3283;52.330;9.772;2024-01-07T17:18:19;101214.56;;;-4.52;100.00
6500;BME280;3283;52.330;9.772;2024-01-07T19:01:37;101291.13;;;-5.87;100.00
6500;BME280;3283;52.330;9.772;2024-01-07T19:04:04;101288.63;;;-5.72;100.00
6500;BME280;3283;52.330;9.772;2024-01-07T19:06:30;101287.78;;;-5.86;100.00
6500;BME280;3283;52.330;9.772;2024-01-07T19:08:55;101294.78;;;-5.83;100.00
6500;BME280;3283;52.330;9.772;2024-01-07T19:11:21;101298.41;;;-5.80;100.00
6500;BME280;3283;52.330;9.772;2024-01-07T19:13:46;101292.91;;;-5.86;100.00
6500;BME280;3283;52.330;9.772;2024-01-07T19:16:12;101293.91;;;-5.84;100.00
6500;BME280;3283;52.330;9.772;2024-01-07T19:18:37;101298.56;;;-5.91;100.00
6500;BME280;3283;52.330;9.772;2024-01-07T19:21:06;101295.63;;;-5.97;100.00
6500;BME280;3283;52.330;9.772;2024-01-07T19:23:31;101294.38;;;-5.89;100.00
6500;BME280;3283;52.330;9.772;2024-01-07T19:25:58;101294.00;;;-5.82;100.00
6500;BME280;3283;52.330;9.772;2024-01-07T19:28:25;101295.03;;;-5.65;100.00
6500;BME280;3283;52.330;9.772;2024-01-07T19:30:51;101291.03;;;-5.75;100.00
6500;BME280;3283;52.330;9.772;2024-01-07T19:33:18;101290.63;;;-5.68;100.00
6500;BME280;3283;52.330;9.772;2024-01-07T19:35:45;101295.06;;;-5.78;100.00
6500;BME280;3283;52.330;9.772;2024-01-07T19:38:10;101296.94;;;-5.63;100.00
6500;BME280;3283;52.330;9.772;2024-01-07T19:40:36;101293.47;;;-5.63;100.00
6500;BME280;3283;52.330;9.772;2024-01-07T19:43:01;101296.72;;;-5.79;100.00
6500;BME280;3283;52.330;9.772;2024-01-07T19:45:27;101304.22;;;-5.69;100.00
6500;BME280;3283;52.330;9.772;2024-01-07T19:47:54;101315.16;;;-5.71;100.00
6500;BME280;3283;52.330;9.772;2024-01-07T19:50:20;101316.25;;;-5.81;100.00
6500;BME280;3283;52.330;9.772;2024-01-07T19:52:46;101311.63;;;-5.87;100.00
6500;BME280;3283;52.330;9.772;2024-01-07T19:55:12;101320.59;;;-5.80;100.00
6500;BME280;3283;52.330;9.772;2024-01-07T19:57:38;101316.50;;;-5.91;100.00
6500;BME280;3283;52.330;9.772;2024-01-07T20:00:04;101323.38;;;-5.90;100.00
6500;BME280;3283;52.330;9.772;2024-01-07T20:02:29;101317.09;;;-5.95;100.00
6500;BME280;3283;52.330;9.772;2024-01-07T20:04:55;101331.69;;;-5.94;100.00
6500;BME280;3283;52.330;9.772;2024-01-07T20:07:20;101335.59;;;-5.99;100.00
6500;BME280;3283;52.330;9.772;2024-01-07T20:09:46;101332.28;;;-6.12;100.00
6500;BME280;3283;52.330;9.772;2024-01-07T20:12:11;101338.66;;;-6.18;100.00
6500;BME280;3283;52.330;9.772;2024-01-07T20:14:37;101345.88;;;-6.13;100.00
6500;BME280;3283;52.330;9.772;2024-01-07T20:17:02;101339.75;;;-6.15;100.00
6500;BME280;3283;52.330;9.772;2024-01-07T20:19:28;101336.00;;;-6.20;100.00
6500;BME280;3283;52.330;9.772;2024-01-07T20:21:53;101342.03;;;-6.19;100.00
6500;BME280;3283;52.330;9.772;2024-01-07T20:24:19;101344.09;;;-6.00;100.00
6500;BME280;3283;52.330;9.772;2024-01-07T20:26:46;101340.47;;;-6.04;100.00
6500;BME280;3283;52.330;9.772;2024-01-07T20:29:11;101345.75;;;-6.14;100.00
6500;BME280;3283;52.330;9.772;2024-01-07T20:31:37;101344.75;;;-6.29;100.00
6500;BME280;3283;52.330;9.772;2024-01-07T20:34:02;101346.81;;;-6.37;100.00
6500;BME280;3283;52.330;9.772;2024-01-07T20:36:28;101348.16;;;-6.42;100.00
6500;BME280;3283;52.330;9.772;2024-01-07T20:38:54;101347.78;;;-6.48;100.00
6500;BME280;3283;52.330;9.772;2024-01-07T20:41:21;101352.16;;;-6.34;100.00
6500;BME280;3283;52.330;9.772;2024-01-07T20:43:48;101342.25;;;-6.54;100.00
